sensor_id;sensor_type;location;lat;lon;timestamp;temperature;humidity
68719;DHT22;55696;52.138;5.444;2023-11-21T00:01:06;11.20;74.40
68719;DHT22;55696;52.138;5.444;2023-11-21T00:03:35;11.10;74.60
68719;DHT22;55696;52.138;5.444;2023-11-21T00:06:03;11.10;74.60
68719;DHT22;55696;52.138;5.444;2023-11-21T00:08:30;11.10;74.70
68719;DHT22;55696;52.138;5.444;2023-11-21T00:10:57;11.10;74.30
68719;DHT22;55696;52.138;5.444;2023-11-21T00:13:24;11.10;74.40
68719;DHT22;55696;52.138;5.444;2023-11-21T00:15:51;11.10;74.40
68719;DHT22;55696;52.138;5.444;2023-11-21T00:18:17;11.20;74.30
68719;DHT22;55696;52.138;5.444;2023-11-21T00:20:44;11.20;74.70
68719;DHT22;55696;52.138;5.444;2023-11-21T00:23:11;11.20;74.50
68719;DHT22;55696;52.138;5.444;2023-11-21T00:25:38;11.20;74.50
68719;DHT22;55696;52.138;5.444;2023-11-21T00:28:05;11.20;74.60
68719;DHT22;55696;52.138;5.444;2023-11-21T00:30:32;11.20;74.60
68719;DHT22;55696;52.138;5.444;2023-11-21T00:32:59;11.20;74.60
68719;DHT22;55696;52.138;5.444;2023-11-21T00:35:26;12.00;74.90
68719;DHT22;55696;52.138;5.444;2023-11-21T00:37:53;11.20;74.60
68719;DHT22;55696;52.138;5.444;2023-11-21T00:40:20;11.30;74.70
68719;DHT22;55696;52.138;5.444;2023-11-21T00:42:48;11.30;74.60
68719;DHT22;55696;52.138;5.444;2023-11-21T00:45:14;11.30;74.50
68719;DHT22;55696;52.138;5.444;2023-11-21T00:47:41;11.20;74.60
68719;DHT22;55696;52.138;5.444;2023-11-21T00:50:09;11.10;74.50
68719;DHT22;55696;52.138;5.444;2023-11-21T00:52:37;11.30;75.00
68719;DHT22;55696;52.138;5.444;2023-11-21T00:55:07;11.10;74.70
68719;DHT22;55696;52.138;5.444;2023-11-21T00:57:35;11.10;76.30
68719;DHT22;55696;52.138;5.444;2023-11-21T01:00:02;11.10;75.40
68719;DHT22;55696;52.138;5.444;2023-11-21T01:02:34;11.20;74.90
68719;DHT22;55696;52.138;5.444;2023-11-21T01:05:03;11.10;74.60
68719;DHT22;55696;52.138;5.444;2023-11-21T01:07:30;11.10;74.90
68719;DHT22;55696;52.138;5.444;2023-11-21T01:09:57;11.10;74.80
68719;DHT22;55696;52.138;5.444;2023-11-21T01:12:24;11.20;74.80
68719;DHT22;55696;52.138;5.444;2023-11-21T01:14:52;11.20;74.60
68719;DHT22;55696;52.138;5.444;2023-11-21T01:17:19;11.20;74.60
68719;DHT22;55696;52.138;5.444;2023-11-21T01:19:51;11.30;75.70
68719;DHT22;55696;52.138;5.444;2023-11-21T01:22:18;11.40;74.40
68719;DHT22;55696;52.138;5.444;2023-11-21T01:24:48;11.40;74.30
68719;DHT22;55696;52.138;5.444;2023-11-21T01:27:15;11.30;74.40
68719;DHT22;55696;52.138;5.444;2023-11-21T01:29:43;11.30;74.40
68719;DHT22;55696;52.138;5.444;2023-11-21T01:32:11;11.30;74.30
68719;DHT22;55696;52.138;5.444;2023-11-21T01:34:38;11.30;74.40
68719;DHT22;55696;52.138;5.444;2023-11-21T01:37:05;11.20;74.10
68719;DHT22;55696;52.138;5.444;2023-11-21T01:39:32;11.40;75.40
68719;DHT22;55696;52.138;5.444;2023-11-21T01:41:59;11.30;74.30
68719;DHT22;55696;52.138;5.444;2023-11-21T01:44:26;11.30;74.30
68719;DHT22;55696;52.138;5.444;2023-11-21T01:46:53;11.40;74.40
68719;DHT22;55696;52.138;5.444;2023-11-21T01:49:20;11.30;74.30
68719;DHT22;55696;52.138;5.444;2023-11-21T01:51:48;11.30;74.60
68719;DHT22;55696;52.138;5.444;2023-11-21T01:54:17;11.30;75.50
68719;DHT22;55696;52.138;5.444;2023-11-21T01:56:46;11.20;75.70
68719;DHT22;55696;52.138;5.444;2023-11-21T01:59:17;11.30;75.40
68719;DHT22;55696;52.138;5.444;2023-11-21T02:01:44;11.30;76.00
68719;DHT22;55696;52.138;5.444;2023-11-21T02:04:13;11.40;74.50
68719;DHT22;55696;52.138;5.444;2023-11-21T02:06:40;11.40;75.20
68719;DHT22;55696;52.138;5.444;2023-11-21T02:09:08;11.50;74.50
68719;DHT22;55696;52.138;5.444;2023-11-21T02:11:35;11.50;74.50
68719;DHT22;55696;52.138;5.444;2023-11-21T02:14:02;11.60;74.30
68719;DHT22;55696;52.138;5.444;2023-11-21T02:16:29;11.50;74.30
68719;DHT22;55696;52.138;5.444;2023-11-21T02:18:58;11.60;74.40
68719;DHT22;55696;52.138;5.444;2023-11-21T02:21:26;11.60;74.50
68719;DHT22;55696;52.138;5.444;2023-11-21T02:23:52;11.60;75.00
68719;DHT22;55696;52.138;5.444;2023-11-21T02:26:19;11.60;74.30
68719;DHT22;55696;52.138;5.444;2023-11-21T02:28:47;11.60;74.30
68719;DHT22;55696;52.138;5.444;2023-11-21T02:31:14;11.70;74.40
68719;DHT22;55696;52.138;5.444;2023-11-21T02:33:41;11.70;74.50
68719;DHT22;55696;52.138;5.444;2023-11-21T02:36:09;11.60;74.50
68719;DHT22;55696;52.138;5.444;2023-11-21T02:38:36;11.80;74.80
68719;DHT22;55696;52.138;5.444;2023-11-21T02:41:02;12.30;74.80
68719;DHT22;55696;52.138;5.444;2023-11-21T02:43:31;11.90;74.60
68719;DHT22;55696;52.138;5.444;2023-11-21T02:45:58;11.80;74.50
68719;DHT22;55696;52.138;5.444;2023-11-21T02:48:25;11.80;74.50
68719;DHT22;55696;52.138;5.444;2023-11-21T02:50:52;11.80;74.50
68719;DHT22;55696;52.138;5.444;2023-11-21T02:53:20;11.90;74.60
68719;DHT22;55696;52.138;5.444;2023-11-21T02:55:46;11.90;74.40
68719;DHT22;55696;52.138;5.444;2023-11-21T02:58:13;12.00;74.50
68719;DHT22;55696;52.138;5.444;2023-11-21T03:00:40;11.90;74.40
68719;DHT22;55696;52.138;5.444;2023-11-21T03:03:08;12.00;74.40
68719;DHT22;55696;52.138;5.444;2023-11-21T03:05:35;12.00;74.20
68719;DHT22;55696;52.138;5.444;2023-11-21T03:08:03;12.00;75.10
68719;DHT22;55696;52.138;5.444;2023-11-21T03:10:30;11.90;74.50
68719;DHT22;55696;52.138;5.444;2023-11-21T03:12:57;11.90;74.40
68719;DHT22;55696;52.138;5.444;2023-11-21T03:15:27;12.00;74.30
68719;DHT22;55696;52.138;5.444;2023-11-21T03:17:54;12.10;76.00
68719;DHT22;55696;52.138;5.444;2023-11-21T03:20:21;12.10;74.20
68719;DHT22;55696;52.138;5.444;2023-11-21T03:22:48;13.00;74.50
68719;DHT22;55696;52.138;5.444;2023-11-21T03:25:15;12.30;74.10
68719;DHT22;55696;52.138;5.444;2023-11-21T03:27:44;12.30;74.20
68719;DHT22;55696;52.138;5.444;2023-11-21T03:30:11;13.50;74.70
68719;DHT22;55696;52.138;5.444;2023-11-21T03:32:38;12.40;74.50
68719;DHT22;55696;52.138;5.444;2023-11-21T03:35:05;12.30;74.00
68719;DHT22;55696;52.138;5.444;2023-11-21T03:37:33;12.40;74.10
68719;DHT22;55696;52.138;5.444;2023-11-21T03:40:00;12.90;74.10
68719;DHT22;55696;52.138;5.444;2023-11-21T03:42:28;12.20;74.20
68719;DHT22;55696;52.138;5.444;2023-11-21T03:44:55;12.30;74.00
68719;DHT22;55696;52.138;5.444;2023-11-21T03:47:22;12.30;74.20
68719;DHT22;55696;52.138;5.444;2023-11-21T03:49:49;12.30;74.10
68719;DHT22;55696;52.138;5.444;2023-11-21T03:52:16;13.10;74.80
68719;DHT22;55696;52.138;5.444;2023-11-21T03:54:43;12.20;74.30
68719;DHT22;55696;52.138;5.444;2023-11-21T03:57:11;12.20;74.50
68719;DHT22;55696;52.138;5.444;2023-11-21T03:59:41;12.20;74.80
68719;DHT22;55696;52.138;5.444;2023-11-21T04:02:08;12.20;76.30
68719;DHT22;55696;52.138;5.444;2023-11-21T04:04:35;12.30;74.70
68719;DHT22;55696;52.138;5.444;2023-11-21T04:07:03;12.20;74.60
68719;DHT22;55696;52.138;5.444;2023-11-21T04:09:30;12.20;74.50
68719;DHT22;55696;52.138;5.444;2023-11-21T04:11:56;12.20;74.60
68719;DHT22;55696;52.138;5.444;2023-11-21T04:14:23;12.20;74.40
68719;DHT22;55696;52.138;5.444;2023-11-21T04:16:50;12.30;74.80
68719;DHT22;55696;52.138;5.444;2023-11-21T04:19:17;12.20;74.50
68719;DHT22;55696;52.138;5.444;2023-11-21T04:21:44;12.40;74.80
68719;DHT22;55696;52.138;5.444;2023-11-21T04:24:11;12.40;74.60
68719;DHT22;55696;52.138;5.444;2023-11-21T04:26:38;12.50;74.60
68719;DHT22;55696;52.138;5.444;2023-11-21T04:29:05;12.50;74.40
68719;DHT22;55696;52.138;5.444;2023-11-21T04:31:32;12.50;74.30
68719;DHT22;55696;52.138;5.444;2023-11-21T04:33:59;12.40;74.30
68719;DHT22;55696;52.138;5.444;2023-11-21T04:36:26;12.60;74.30
68719;DHT22;55696;52.138;5.444;2023-11-21T04:38:53;12.60;74.30
68719;DHT22;55696;52.138;5.444;2023-11-21T04:41:20;12.60;74.10
68719;DHT22;55696;52.138;5.444;2023-11-21T04:43:46;12.50;74.30
68719;DHT22;55696;52.138;5.444;2023-11-21T04:46:13;12.60;74.40
68719;DHT22;55696;52.138;5.444;2023-11-21T04:48:40;12.60;74.40
68719;DHT22;55696;52.138;5.444;2023-11-21T04:51:07;12.60;74.30
68719;DHT22;55696;52.138;5.444;2023-11-21T04:53:34;12.60;74.30
68719;DHT22;55696;52.138;5.444;2023-11-21T04:56:01;12.60;74.30
68719;DHT22;55696;52.138;5.444;2023-11-21T04:58:30;12.60;74.50
68719;DHT22;55696;52.138;5.444;2023-11-21T05:00:57;12.70;75.60
68719;DHT22;55696;52.138;5.444;2023-11-21T05:03:24;12.70;74.80
68719;DHT22;55696;52.138;5.444;2023-11-21T05:05:51;12.70;74.20
68719;DHT22;55696;52.138;5.444;2023-11-21T05:08:18;12.70;74.20
68719;DHT22;55696;52.138;5.444;2023-11-21T05:10:46;12.70;74.20
68719;DHT22;55696;52.138;5.444;2023-11-21T05:13:14;12.60;74.40
68719;DHT22;55696;52.138;5.444;2023-11-21T05:15:44;12.50;74.60
68719;DHT22;55696;52.138;5.444;2023-11-21T05:18:11;12.70;75.50
68719;DHT22;55696;52.138;5.444;2023-11-21T05:20:41;12.70;74.70
68719;DHT22;55696;52.138;5.444;2023-11-21T05:23:09;12.70;74.50
68719;DHT22;55696;52.138;5.444;2023-11-21T05:25:35;12.70;74.30
68719;DHT22;55696;52.138;5.444;2023-11-21T05:28:06;13.30;75.70
68719;DHT22;55696;52.138;5.444;2023-11-21T05:30:33;12.70;74.60
68719;DHT22;55696;52.138;5.444;2023-11-21T05:33:00;12.70;74.60
68719;DHT22;55696;52.138;5.444;2023-11-21T05:35:27;12.60;74.70
68719;DHT22;55696;52.138;5.444;2023-11-21T05:37:54;12.70;74.60
68719;DHT22;55696;52.138;5.444;2023-11-21T05:40:21;12.60;74.50
68719;DHT22;55696;52.138;5.444;2023-11-21T05:42:49;12.60;74.40
68719;DHT22;55696;52.138;5.444;2023-11-21T05:45:17;12.70;75.30
68719;DHT22;55696;52.138;5.444;2023-11-21T05:47:46;12.70;74.80
68719;DHT22;55696;52.138;5.444;2023-11-21T05:50:15;12.70;75.20
68719;DHT22;55696;52.138;5.444;2023-11-21T05:52:44;12.70;75.70
68719;DHT22;55696;52.138;5.444;2023-11-21T05:55:14;12.80;75.80
68719;DHT22;55696;52.138;5.444;2023-11-21T05:57:45;12.90;76.20
68719;DHT22;55696;52.138;5.444;2023-11-21T06:00:13;12.90;74.60
68719;DHT22;55696;52.138;5.444;2023-11-21T06:02:49;12.90;75.70
68719;DHT22;55696;52.138;5.444;2023-11-21T06:05:24;13.70;75.70
68719;DHT22;55696;52.138;5.444;2023-11-21T06:07:53;13.60;75.80
68719;DHT22;55696;52.138;5.444;2023-11-21T06:10:21;12.90;75.50
68719;DHT22;55696;52.138;5.444;2023-11-21T06:12:51;13.00;75.50
68719;DHT22;55696;52.138;5.444;2023-11-21T06:15:18;13.00;74.80
68719;DHT22;55696;52.138;5.444;2023-11-21T06:17:47;13.10;74.50
68719;DHT22;55696;52.138;5.444;2023-11-21T06:20:19;13.10;74.20
68719;DHT22;55696;52.138;5.444;2023-11-21T06:22:47;13.00;74.60
68719;DHT22;55696;52.138;5.444;2023-11-21T06:25:15;12.70;75.20
68719;DHT22;55696;52.138;5.444;2023-11-21T06:27:44;13.10;74.60
68719;DHT22;55696;52.138;5.444;2023-11-21T06:30:12;13.10;75.70
68719;DHT22;55696;52.138;5.444;2023-11-21T06:32:40;13.10;75.40
68719;DHT22;55696;52.138;5.444;2023-11-21T06:35:08;13.00;74.70
68719;DHT22;55696;52.138;5.444;2023-11-21T06:37:38;13.30;75.50
68719;DHT22;55696;52.138;5.444;2023-11-21T06:40:05;13.00;74.80
68719;DHT22;55696;52.138;5.444;2023-11-21T06:42:33;13.10;75.20
68719;DHT22;55696;52.138;5.444;2023-11-21T06:45:05;13.00;74.80
68719;DHT22;55696;52.138;5.444;2023-11-21T06:47:32;13.20;75.00
68719;DHT22;55696;52.138;5.444;2023-11-21T06:49:59;13.20;74.90
68719;DHT22;55696;52.138;5.444;2023-11-21T06:52:27;13.20;75.30
68719;DHT22;55696;52.138;5.444;2023-11-21T06:54:54;13.20;75.20
68719;DHT22;55696;52.138;5.444;2023-11-21T06:57:23;13.20;75.10
68719;DHT22;55696;52.138;5.444;2023-11-21T06:59:50;13.20;76.40
68719;DHT22;55696;52.138;5.444;2023-11-21T07:02:17;13.20;75.20
68719;DHT22;55696;52.138;5.444;2023-11-21T07:04:45;13.20;75.10
68719;DHT22;55696;52.138;5.444;2023-11-21T07:07:13;13.30;75.80
68719;DHT22;55696;52.138;5.444;2023-11-21T07:09:40;13.20;75.30
68719;DHT22;55696;52.138;5.444;2023-11-21T07:12:07;13.20;75.30
68719;DHT22;55696;52.138;5.444;2023-11-21T07:14:34;13.30;75.70
68719;DHT22;55696;52.138;5.444;2023-11-21T07:17:01;13.20;76.00
68719;DHT22;55696;52.138;5.444;2023-11-21T07:19:28;13.30;75.40
68719;DHT22;55696;52.138;5.444;2023-11-21T07:21:55;13.30;75.40
68719;DHT22;55696;52.138;5.444;2023-11-21T07:24:22;13.30;75.50
68719;DHT22;55696;52.138;5.444;2023-11-21T07:26:52;13.40;76.30
68719;DHT22;55696;52.138;5.444;2023-11-21T07:29:26;14.10;75.70
68719;DHT22;55696;52.138;5.444;2023-11-21T07:31:53;13.40;77.30
68719;DHT22;55696;52.138;5.444;2023-11-21T07:34:21;13.50;75.70
68719;DHT22;55696;52.138;5.444;2023-11-21T07:36:48;13.60;76.20
68719;DHT22;55696;52.138;5.444;2023-11-21T07:39:14;13.60;75.50
68719;DHT22;55696;52.138;5.444;2023-11-21T07:41:43;13.40;75.10
68719;DHT22;55696;52.138;5.444;2023-11-21T07:44:16;13.40;74.90
68719;DHT22;55696;52.138;5.444;2023-11-21T07:46:47;13.70;76.00
68719;DHT22;55696;52.138;5.444;2023-11-21T07:49:15;13.50;75.20
68719;DHT22;55696;52.138;5.444;2023-11-21T07:51:43;13.60;75.60
68719;DHT22;55696;52.138;5.444;2023-11-21T07:54:11;13.60;75.60
68719;DHT22;55696;52.138;5.444;2023-11-21T07:56:37;13.60;75.90
68719;DHT22;55696;52.138;5.444;2023-11-21T07:59:04;13.60;75.60
68719;DHT22;55696;52.138;5.444;2023-11-21T08:01:31;13.60;75.40
68719;DHT22;55696;52.138;5.444;2023-11-21T08:03:58;14.10;75.70
68719;DHT22;55696;52.138;5.444;2023-11-21T08:06:30;13.60;75.50
68719;DHT22;55696;52.138;5.444;2023-11-21T08:08:57;13.60;75.60
68719;DHT22;55696;52.138;5.444;2023-11-21T08:11:24;13.70;75.90
68719;DHT22;55696;52.138;5.444;2023-11-21T08:13:53;14.50;76.30
68719;DHT22;55696;52.138;5.444;2023-11-21T08:16:21;13.80;75.70
68719;DHT22;55696;52.138;5.444;2023-11-21T08:18:47;13.80;75.80
68719;DHT22;55696;52.138;5.444;2023-11-21T08:21:14;13.90;75.70
68719;DHT22;55696;52.138;5.444;2023-11-21T08:23:41;13.90;75.60
68719;DHT22;55696;52.138;5.444;2023-11-21T08:26:08;14.50;76.00
68719;DHT22;55696;52.138;5.444;2023-11-21T08:28:35;13.90;75.60
68719;DHT22;55696;52.138;5.444;2023-11-21T08:31:02;14.00;76.00
68719;DHT22;55696;52.138;5.444;2023-11-21T08:33:29;14.00;75.80
68719;DHT22;55696;52.138;5.444;2023-11-21T08:35:56;13.90;75.70
68719;DHT22;55696;52.138;5.444;2023-11-21T08:38:23;13.90;75.70
68719;DHT22;55696;52.138;5.444;2023-11-21T08:40:50;14.00;75.70
68719;DHT22;55696;52.138;5.444;2023-11-21T08:43:17;13.90;75.60
68719;DHT22;55696;52.138;5.444;2023-11-21T08:45:46;13.90;75.90
68719;DHT22;55696;52.138;5.444;2023-11-21T08:48:13;13.80;76.20
68719;DHT22;55696;52.138;5.444;2023-11-21T08:50:40;13.90;76.40
68719;DHT22;55696;52.138;5.444;2023-11-21T08:53:07;13.80;76.40
68719;DHT22;55696;52.138;5.444;2023-11-21T08:55:34;13.80;76.50
68719;DHT22;55696;52.138;5.444;2023-11-21T08:58:04;13.80;76.50
68719;DHT22;55696;52.138;5.444;2023-11-21T09:00:32;13.80;76.60
68719;DHT22;55696;52.138;5.444;2023-11-21T09:03:01;13.80;77.40
68719;DHT22;55696;52.138;5.444;2023-11-21T09:05:28;13.90;78.40
68719;DHT22;55696;52.138;5.444;2023-11-21T09:07:55;13.90;77.00
68719;DHT22;55696;52.138;5.444;2023-11-21T09:10:22;14.20;76.70
68719;DHT22;55696;52.138;5.444;2023-11-21T09:12:52;14.40;76.10
68719;DHT22;55696;52.138;5.444;2023-11-21T09:15:19;15.30;76.20
68719;DHT22;55696;52.138;5.444;2023-11-21T09:17:47;14.50;75.30
68719;DHT22;55696;52.138;5.444;2023-11-21T09:20:14;14.60;75.60
68719;DHT22;55696;52.138;5.444;2023-11-21T09:22:42;14.60;76.10
68719;DHT22;55696;52.138;5.444;2023-11-21T09:25:11;14.50;75.10
68719;DHT22;55696;52.138;5.444;2023-11-21T09:27:39;14.50;75.10
68719;DHT22;55696;52.138;5.444;2023-11-21T09:30:07;14.60;75.40
68719;DHT22;55696;52.138;5.444;2023-11-21T09:32:40;14.40;76.10
68719;DHT22;55696;52.138;5.444;2023-11-21T09:35:08;14.60;77.30
68719;DHT22;55696;52.138;5.444;2023-11-21T09:37:35;14.40;75.70
68719;DHT22;55696;52.138;5.444;2023-11-21T09:40:03;14.30;75.40
68719;DHT22;55696;52.138;5.444;2023-11-21T09:42:49;14.40;75.40
68719;DHT22;55696;52.138;5.444;2023-11-21T09:47:47;14.30;77.10
68719;DHT22;55696;52.138;5.444;2023-11-21T09:50:17;14.10;75.50
68719;DHT22;55696;52.138;5.444;2023-11-21T09:53:19;14.20;77.00
68719;DHT22;55696;52.138;5.444;2023-11-21T09:55:49;14.00;77.70
68719;DHT22;55696;52.138;5.444;2023-11-21T09:58:19;13.90;77.10
68719;DHT22;55696;52.138;5.444;2023-11-21T10:00:48;13.90;76.80
68719;DHT22;55696;52.138;5.444;2023-11-21T10:03:15;13.90;76.70
68719;DHT22;55696;52.138;5.444;2023-11-21T10:05:43;14.70;76.60
68719;DHT22;55696;52.138;5.444;2023-11-21T10:08:12;13.90;76.20
68719;DHT22;55696;52.138;5.444;2023-11-21T10:10:44;13.70;75.40
68719;DHT22;55696;52.138;5.444;2023-11-21T10:13:13;14.10;77.80
68719;DHT22;55696;52.138;5.444;2023-11-21T10:15:44;13.70;77.00
68719;DHT22;55696;52.138;5.444;2023-11-21T10:18:16;13.70;76.00
68719;DHT22;55696;52.138;5.444;2023-11-21T10:20:44;13.60;76.50
68719;DHT22;55696;52.138;5.444;2023-11-21T10:23:13;14.30;76.50
68719;DHT22;55696;52.138;5.444;2023-11-21T10:25:41;13.80;76.50
68719;DHT22;55696;52.138;5.444;2023-11-21T10:28:10;14.10;75.90
68719;DHT22;55696;52.138;5.444;2023-11-21T10:30:38;14.20;76.70
68719;DHT22;55696;52.138;5.444;2023-11-21T10:33:06;14.20;75.90
68719;DHT22;55696;52.138;5.444;2023-11-21T10:35:43;14.30;75.30
68719;DHT22;55696;52.138;5.444;2023-11-21T10:38:22;14.30;76.20
68719;DHT22;55696;52.138;5.444;2023-11-21T10:40:51;14.10;74.90
68719;DHT22;55696;52.138;5.444;2023-11-21T10:43:18;14.10;74.70
68719;DHT22;55696;52.138;5.444;2023-11-21T10:45:45;14.00;74.50
68719;DHT22;55696;52.138;5.444;2023-11-21T10:48:14;14.50;74.80
68719;DHT22;55696;52.138;5.444;2023-11-21T10:50:46;13.80;75.50
68719;DHT22;55696;52.138;5.444;2023-11-21T10:53:13;13.80;76.30
68719;DHT22;55696;52.138;5.444;2023-11-21T10:55:41;13.60;75.00
68719;DHT22;55696;52.138;5.444;2023-11-21T10:58:10;13.70;75.40
68719;DHT22;55696;52.138;5.444;2023-11-21T11:00:40;13.70;76.80
68719;DHT22;55696;52.138;5.444;2023-11-21T11:03:07;13.70;75.40
68719;DHT22;55696;52.138;5.444;2023-11-21T11:05:43;13.80;75.40
68719;DHT22;55696;52.138;5.444;2023-11-21T11:08:15;14.10;76.30
68719;DHT22;55696;52.138;5.444;2023-11-21T11:10:46;13.80;75.20
68719;DHT22;55696;52.138;5.444;2023-11-21T11:13:16;13.90;75.20
68719;DHT22;55696;52.138;5.444;2023-11-21T11:15:47;13.80;75.70
68719;DHT22;55696;52.138;5.444;2023-11-21T11:18:15;14.00;75.10
68719;DHT22;55696;52.138;5.444;2023-11-21T11:20:43;14.00;75.50
68719;DHT22;55696;52.138;5.444;2023-11-21T11:26:32;13.90;76.20
68719;DHT22;55696;52.138;5.444;2023-11-21T11:29:18;13.80;76.90
68719;DHT22;55696;52.138;5.444;2023-11-21T11:32:05;13.90;76.50
68719;DHT22;55696;52.138;5.444;2023-11-21T11:34:46;14.00;76.00
68719;DHT22;55696;52.138;5.444;2023-11-21T11:37:16;14.00;76.00
68719;DHT22;55696;52.138;5.444;2023-11-21T11:39:43;14.10;74.80
68719;DHT22;55696;52.138;5.444;2023-11-21T11:42:13;14.10;74.40
68719;DHT22;55696;52.138;5.444;2023-11-21T11:47:21;14.10;73.50
68719;DHT22;55696;52.138;5.444;2023-11-21T11:50:04;14.10;76.00
68719;DHT22;55696;52.138;5.444;2023-11-21T11:52:41;14.10;76.00
68719;DHT22;55696;52.138;5.444;2023-11-21T11:55:16;14.10;75.20
68719;DHT22;55696;52.138;5.444;2023-11-21T11:57:50;14.20;76.20
68719;DHT22;55696;52.138;5.444;2023-11-21T12:00:36;14.30;74.60
68719;DHT22;55696;52.138;5.444;2023-11-21T12:03:08;14.30;75.50
68719;DHT22;55696;52.138;5.444;2023-11-21T12:05:36;14.30;74.60
68719;DHT22;55696;52.138;5.444;2023-11-21T12:08:06;14.30;73.70
68719;DHT22;55696;52.138;5.444;2023-11-21T12:10:36;14.20;74.80
68719;DHT22;55696;52.138;5.444;2023-11-21T12:13:08;14.20;74.50
68719;DHT22;55696;52.138;5.444;2023-11-21T12:15:37;14.20;75.30
68719;DHT22;55696;52.138;5.444;2023-11-21T12:18:05;14.20;73.60
68719;DHT22;55696;52.138;5.444;2023-11-21T12:20:33;14.00;73.20
68719;DHT22;55696;52.138;5.444;2023-11-21T12:23:05;14.20;73.90
68719;DHT22;55696;52.138;5.444;2023-11-21T12:25:32;14.20;74.10
68719;DHT22;55696;52.138;5.444;2023-11-21T12:28:02;14.30;73.80
68719;DHT22;55696;52.138;5.444;2023-11-21T12:30:31;14.20;73.80
68719;DHT22;55696;52.138;5.444;2023-11-21T12:32:59;14.30;74.10
68719;DHT22;55696;52.138;5.444;2023-11-21T12:35:32;14.30;74.30
68719;DHT22;55696;52.138;5.444;2023-11-21T12:38:03;14.30;74.00
68719;DHT22;55696;52.138;5.444;2023-11-21T12:40:30;14.30;74.10
68719;DHT22;55696;52.138;5.444;2023-11-21T12:43:00;14.40;74.20
68719;DHT22;55696;52.138;5.444;2023-11-21T12:45:29;14.40;73.90
68719;DHT22;55696;52.138;5.444;2023-11-21T12:47:59;14.40;73.80
68719;DHT22;55696;52.138;5.444;2023-11-21T12:50:29;14.30;75.10
68719;DHT22;55696;52.138;5.444;2023-11-21T12:55:30;14.30;73.90
68719;DHT22;55696;52.138;5.444;2023-11-21T12:57:59;14.30;74.50
68719;DHT22;55696;52.138;5.444;2023-11-21T13:00:35;14.30;73.50
68719;DHT22;55696;52.138;5.444;2023-11-21T13:03:05;14.40;73.90
68719;DHT22;55696;52.138;5.444;2023-11-21T13:05:37;14.30;74.20
68719;DHT22;55696;52.138;5.444;2023-11-21T13:08:09;15.10;74.90
68719;DHT22;55696;52.138;5.444;2023-11-21T13:10:40;14.40;73.40
68719;DHT22;55696;52.138;5.444;2023-11-21T13:13:11;14.40;73.80
68719;DHT22;55696;52.138;5.444;2023-11-21T13:18:16;14.40;74.50
68719;DHT22;55696;52.138;5.444;2023-11-21T13:20:44;14.40;73.10
68719;DHT22;55696;52.138;5.444;2023-11-21T13:23:11;14.40;72.40
68719;DHT22;55696;52.138;5.444;2023-11-21T13:25:43;14.20;72.40
68719;DHT22;55696;52.138;5.444;2023-11-21T13:28:20;14.30;73.10
68719;DHT22;55696;52.138;5.444;2023-11-21T13:30:50;14.10;72.80
68719;DHT22;55696;52.138;5.444;2023-11-21T13:33:19;14.10;73.10
68719;DHT22;55696;52.138;5.444;2023-11-21T13:35:48;14.10;73.00
68719;DHT22;55696;52.138;5.444;2023-11-21T13:38:18;13.90;72.90
68719;DHT22;55696;52.138;5.444;2023-11-21T13:40:54;14.00;73.50
68719;DHT22;55696;52.138;5.444;2023-11-21T13:43:23;14.00;75.30
68719;DHT22;55696;52.138;5.444;2023-11-21T13:45:53;14.00;73.90
68719;DHT22;55696;52.138;5.444;2023-11-21T13:48:29;13.90;73.80
68719;DHT22;55696;52.138;5.444;2023-11-21T13:51:07;14.50;73.00
68719;DHT22;55696;52.138;5.444;2023-11-21T13:53:45;14.70;72.90
68719;DHT22;55696;52.138;5.444;2023-11-21T13:56:15;13.80;73.70
68719;DHT22;55696;52.138;5.444;2023-11-21T13:58:46;13.80;73.20
68719;DHT22;55696;52.138;5.444;2023-11-21T14:01:18;13.80;72.90
68719;DHT22;55696;52.138;5.444;2023-11-21T14:04:05;14.70;73.90
68719;DHT22;55696;52.138;5.444;2023-11-21T14:06:47;13.80;72.10
68719;DHT22;55696;52.138;5.444;2023-11-21T14:09:19;13.60;73.50
68719;DHT22;55696;52.138;5.444;2023-11-21T14:11:51;13.70;73.70
68719;DHT22;55696;52.138;5.444;2023-11-21T14:14:21;13.50;73.90
68719;DHT22;55696;52.138;5.444;2023-11-21T14:16:48;13.60;73.90
68719;DHT22;55696;52.138;5.444;2023-11-21T14:19:15;14.00;73.30
68719;DHT22;55696;52.138;5.444;2023-11-21T14:21:46;13.50;73.20
68719;DHT22;55696;52.138;5.444;2023-11-21T14:24:13;14.50;75.50
68719;DHT22;55696;52.138;5.444;2023-11-21T14:26:41;13.40;73.50
68719;DHT22;55696;52.138;5.444;2023-11-21T14:29:09;13.40;74.00
68719;DHT22;55696;52.138;5.444;2023-11-21T14:31:39;13.40;73.20
68719;DHT22;55696;52.138;5.444;2023-11-21T14:34:07;13.50;72.80
68719;DHT22;55696;52.138;5.444;2023-11-21T14:36:34;13.40;73.40
68719;DHT22;55696;52.138;5.444;2023-11-21T14:39:03;13.30;73.80
68719;DHT22;55696;52.138;5.444;2023-11-21T14:41:35;13.20;74.10
68719;DHT22;55696;52.138;5.444;2023-11-21T14:44:04;13.30;73.50
68719;DHT22;55696;52.138;5.444;2023-11-21T14:46:34;13.30;73.60
68719;DHT22;55696;52.138;5.444;2023-11-21T14:49:03;13.30;73.30
68719;DHT22;55696;52.138;5.444;2023-11-21T14:51:48;13.50;73.40
68719;DHT22;55696;52.138;5.444;2023-11-21T14:54:28;13.70;74.90
68719;DHT22;55696;52.138;5.444;2023-11-21T14:57:09;13.20;74.20
68719;DHT22;55696;52.138;5.444;2023-11-21T14:59:46;13.10;74.50
68719;DHT22;55696;52.138;5.444;2023-11-21T15:02:15;13.10;75.10
68719;DHT22;55696;52.138;5.444;2023-11-21T15:04:43;13.10;73.10
68719;DHT22;55696;52.138;5.444;2023-11-21T15:07:10;13.00;73.60
68719;DHT22;55696;52.138;5.444;2023-11-21T15:09:40;13.50;74.40
68719;DHT22;55696;52.138;5.444;2023-11-21T15:12:12;13.00;73.20
68719;DHT22;55696;52.138;5.444;2023-11-21T15:14:48;13.00;74.10
68719;DHT22;55696;52.138;5.444;2023-11-21T15:17:19;13.00;73.00
68719;DHT22;55696;52.138;5.444;2023-11-21T15:20:06;13.00;73.40
68719;DHT22;55696;52.138;5.444;2023-11-21T15:22:35;13.10;73.50
68719;DHT22;55696;52.138;5.444;2023-11-21T15:25:02;13.00;72.90
68719;DHT22;55696;52.138;5.444;2023-11-21T15:27:36;13.10;73.10
68719;DHT22;55696;52.138;5.444;2023-11-21T15:30:03;13.00;72.70
68719;DHT22;55696;52.138;5.444;2023-11-21T15:32:31;13.10;72.80
68719;DHT22;55696;52.138;5.444;2023-11-21T15:34:57;13.00;72.50
68719;DHT22;55696;52.138;5.444;2023-11-21T15:37:24;13.00;72.50
68719;DHT22;55696;52.138;5.444;2023-11-21T15:39:54;13.00;72.20
68719;DHT22;55696;52.138;5.444;2023-11-21T15:42:21;12.90;72.30
68719;DHT22;55696;52.138;5.444;2023-11-21T15:44:48;12.80;71.90
68719;DHT22;55696;52.138;5.444;2023-11-21T15:47:16;12.80;71.70
68719;DHT22;55696;52.138;5.444;2023-11-21T15:49:43;12.70;71.90
68719;DHT22;55696;52.138;5.444;2023-11-21T15:52:15;12.70;71.90
68719;DHT22;55696;52.138;5.444;2023-11-21T15:54:42;12.80;71.80